Flag for Australia

Past Weather in 30°30'48.0"S, 151°39'59.7"E, Australia — Yesterday and Last 2 Weeks

Currently: 31 °F. Low clouds. (Weather station: Armidale Airport Aws, Australia). See more current weather

Past Weather in 30°30'48.0"S, 151°39'59.7"E — Graph

°F

30°30'48.0"S, 151°39'59.7"E Temperature Yesterday

Maximum temperature yesterday: 52 °F (at 2:00 pm)
Minimum temperature yesterday: 36 °F (at 11:00 pm)
Average temperature yesterday: 44 °F

High & Low Weather Summary for the Past Weeks

 TemperatureHumidityPressure
High57 °F (Jun 11, 3:00 pm)100% (Jun 22, 8:00 am)30.24 "Hg (Jun 22, 8:00 am)
Low30 °F (Jun 22, 6:00 am)33% (Jun 19, 3:00 pm)29.87 "Hg (Jun 12, 2:00 pm)
Average43 °F81%30.06 "Hg
* Reported Jun 9 2:00 am — Jun 24 2:00 am, 30°30'48.0"S, 151°39'59.7"E. Weather by CustomWeather, © 2024

Note: Actual official high and low records may vary slightly from our data, if they occured in-between our weather recording intervals... More about our weather records

30°30'48.0"S, 151°39'59.7"E Weather History for the Previous 24 Hours

Scroll right to see more
 ConditionsComfort  
Time TempWeatherWind HumidityBarometerVisibility
2:00 am
Mon, Jun 24
32 °FChilly.No wind98%30.13 "HgN/A
1:00 am35 °FChilly.No wind98%30.13 "HgN/A
12:00 am35 °FChilly.No wind97%30.13 "HgN/A
11:00 pm
Sun, Jun 23
36 °FChilly.5 mph94%30.14 "HgN/A
10:00 pm40 °FQuite cool.6 mph92%30.15 "HgN/A
9:00 pm41 °FQuite cool.8 mph92%30.15 "HgN/A
8:00 pm40 °FChilly.5 mph87%30.16 "HgN/A
7:00 pm41 °FQuite cool.5 mph85%30.16 "HgN/A
6:00 pm43 °FQuite cool.6 mph79%30.14 "HgN/A
5:00 pm47 °FCool.7 mph69%30.13 "HgN/A
4:00 pm49 °FCool.8 mph63%30.13 "HgN/A
3:00 pm51 °FScattered clouds.12 mph60%30.12 "HgN/A
2:00 pm52 °FCool.9 mph52%30.13 "HgN/A
1:00 pm51 °FCool.8 mph47%30.14 "HgN/A
12:00 pm50 °FScattered clouds.10 mph56%30.16 "HgN/A
11:00 am47 °FCool.10 mph72%30.18 "HgN/A
10:00 am46 °FCool.7 mph83%30.19 "HgN/A
9:00 am44 °FOvercast.7 mph87%30.19 "HgN/A
8:00 am43 °FQuite cool.6 mph91%30.18 "HgN/A
7:00 am41 °FQuite cool.5 mph94%30.18 "HgN/A
6:00 am41 °FOvercast.5 mph92%30.17 "HgN/A
5:00 am42 °FQuite cool.7 mph89%30.15 "HgN/A
4:00 am41 °FQuite cool.5 mph92%30.15 "HgN/A
3:00 am41 °FOvercast.5 mph93%30.17 "HgN/A
Weather by CustomWeather, © 2024

See weather overview